Ashfield, Massachusetts
Current Conditions -  °F | °C
As of 3:52 AM on Wednesday 22 Oct 2014 (Local Time) from KAQW Reporting Station
Overcast Overcast  
Wind Chill: 51°   Ceiling: 1800
Heat Index: 51°   Visibility: 10mi
Dew Point: 46°   Wind: 8mph
Humidity: 83%   Direction: 110°ESE
Pressure: 30"   Gusts: NA
Location:  42.53°N, 72.79°W
Report Text: KAQW 220752Z AUTO 11007KT 10SM OVC018 11/08 A3000 RMK AO2 SLP161 T01060078
Loading
Personal Weather Stations






























Interactive Weather Map
Tropical Storm Tracking
New forecast layout! Learn more

10-Day Weather Forecast

Advertisements
Track Severe Weather on mobile